sensor_id;sensor_type;location;lat;lon;timestamp;P1;durP1;ratioP1;P2;durP2;ratioP2
18188;SDS011;9219;50.396;8.546;2023-07-08T00:05:59;6.30;;;3.43;;
18188;SDS011;9219;50.396;8.546;2023-07-08T00:08:26;5.17;;;3.97;;
18188;SDS011;9219;50.396;8.546;2023-07-08T00:10:55;7.63;;;4.20;;
18188;SDS011;9219;50.396;8.546;2023-07-08T00:13:23;6.57;;;3.70;;
18188;SDS011;9219;50.396;8.546;2023-07-08T00:15:51;5.53;;;3.73;;
18188;SDS011;9219;50.396;8.546;2023-07-08T00:18:19;6.43;;;3.93;;
18188;SDS011;9219;50.396;8.546;2023-07-08T00:20:47;5.53;;;3.43;;
18188;SDS011;9219;50.396;8.546;2023-07-08T00:28:23;9.10;;;4.40;;
18188;SDS011;9219;50.396;8.546;2023-07-08T00:30:50;5.00;;;3.47;;
18188;SDS011;9219;50.396;8.546;2023-07-08T00:33:19;6.80;;;4.20;;
18188;SDS011;9219;50.396;8.546;2023-07-08T00:35:46;5.80;;;4.17;;
18188;SDS011;9219;50.396;8.546;2023-07-08T00:38:14;6.57;;;3.83;;
18188;SDS011;9219;50.396;8.546;2023-07-08T00:40:48;5.70;;;3.77;;
18188;SDS011;9219;50.396;8.546;2023-07-08T00:43:19;6.00;;;3.40;;
18188;SDS011;9219;50.396;8.546;2023-07-08T00:45:54;7.53;;;4.07;;
18188;SDS011;9219;50.396;8.546;2023-07-08T00:52:18;4.70;;;3.20;;
18188;SDS011;9219;50.396;8.546;2023-07-08T00:54:51;6.37;;;4.03;;
18188;SDS011;9219;50.396;8.546;2023-07-08T00:57:20;7.37;;;4.33;;
18188;SDS011;9219;50.396;8.546;2023-07-08T00:59:52;6.47;;;3.97;;
18188;SDS011;9219;50.396;8.546;2023-07-08T01:02:24;5.53;;;3.77;;
18188;SDS011;9219;50.396;8.546;2023-07-08T01:04:56;5.73;;;3.80;;
18188;SDS011;9219;50.396;8.546;2023-07-08T01:07:29;5.13;;;3.67;;
18188;SDS011;9219;50.396;8.546;2023-07-08T01:13:44;5.27;;;3.67;;
18188;SDS011;9219;50.396;8.546;2023-07-08T01:16:13;7.80;;;3.70;;
18188;SDS011;9219;50.396;8.546;2023-07-08T01:18:41;5.90;;;3.37;;
18188;SDS011;9219;50.396;8.546;2023-07-08T01:21:29;6.07;;;3.87;;
18188;SDS011;9219;50.396;8.546;2023-07-08T01:24:01;4.83;;;3.00;;
18188;SDS011;9219;50.396;8.546;2023-07-08T01:26:30;6.97;;;4.13;;
18188;SDS011;9219;50.396;8.546;2023-07-08T01:29:00;5.40;;;3.70;;
18188;SDS011;9219;50.396;8.546;2023-07-08T01:36:37;6.17;;;3.30;;
18188;SDS011;9219;50.396;8.546;2023-07-08T01:39:10;7.40;;;3.73;;
18188;SDS011;9219;50.396;8.546;2023-07-08T01:41:41;5.87;;;3.50;;
18188;SDS011;9219;50.396;8.546;2023-07-08T01:44:18;5.20;;;3.60;;
18188;SDS011;9219;50.396;8.546;2023-07-08T01:46:54;4.43;;;3.23;;
18188;SDS011;9219;50.396;8.546;2023-07-08T01:49:24;5.40;;;3.47;;
18188;SDS011;9219;50.396;8.546;2023-07-08T01:51:53;5.03;;;3.67;;
18188;SDS011;9219;50.396;8.546;2023-07-08T01:59:26;5.60;;;3.40;;
18188;SDS011;9219;50.396;8.546;2023-07-08T02:01:54;4.07;;;2.90;;
18188;SDS011;9219;50.396;8.546;2023-07-08T02:04:22;7.30;;;3.80;;
18188;SDS011;9219;50.396;8.546;2023-07-08T02:06:51;6.73;;;3.27;;
18188;SDS011;9219;50.396;8.546;2023-07-08T02:09:19;5.27;;;3.30;;
18188;SDS011;9219;50.396;8.546;2023-07-08T02:11:47;5.40;;;3.60;;
18188;SDS011;9219;50.396;8.546;2023-07-08T02:14:14;7.10;;;3.97;;
18188;SDS011;9219;50.396;8.546;2023-07-08T02:19:39;5.33;;;3.67;;
18188;SDS011;9219;50.396;8.546;2023-07-08T02:22:07;4.57;;;3.33;;
18188;SDS011;9219;50.396;8.546;2023-07-08T02:24:34;5.37;;;3.67;;
18188;SDS011;9219;50.396;8.546;2023-07-08T02:27:02;5.40;;;3.50;;
18188;SDS011;9219;50.396;8.546;2023-07-08T02:29:30;3.97;;;3.07;;
18188;SDS011;9219;50.396;8.546;2023-07-08T02:31:58;8.50;;;3.40;;
18188;SDS011;9219;50.396;8.546;2023-07-08T02:34:26;6.97;;;3.53;;
18188;SDS011;9219;50.396;8.546;2023-07-08T02:39:37;7.00;;;4.43;;
18188;SDS011;9219;50.396;8.546;2023-07-08T02:42:05;3.70;;;3.30;;
18188;SDS011;9219;50.396;8.546;2023-07-08T02:44:32;4.83;;;3.47;;
18188;SDS011;9219;50.396;8.546;2023-07-08T02:47:00;6.30;;;3.90;;
18188;SDS011;9219;50.396;8.546;2023-07-08T02:49:27;5.40;;;3.50;;
18188;SDS011;9219;50.396;8.546;2023-07-08T02:51:57;5.73;;;3.80;;
18188;SDS011;9219;50.396;8.546;2023-07-08T02:54:24;6.57;;;4.00;;
18188;SDS011;9219;50.396;8.546;2023-07-08T02:56:52;7.07;;;4.67;;
18188;SDS011;9219;50.396;8.546;2023-07-08T03:04:20;5.03;;;3.40;;
18188;SDS011;9219;50.396;8.546;2023-07-08T03:06:51;8.37;;;3.70;;
18188;SDS011;9219;50.396;8.546;2023-07-08T03:09:20;5.53;;;3.70;;
18188;SDS011;9219;50.396;8.546;2023-07-08T03:11:47;4.83;;;3.77;;
18188;SDS011;9219;50.396;8.546;2023-07-08T03:14:15;5.73;;;3.80;;
18188;SDS011;9219;50.396;8.546;2023-07-08T03:16:43;5.30;;;3.90;;
18188;SDS011;9219;50.396;8.546;2023-07-08T03:19:11;5.40;;;3.47;;
18188;SDS011;9219;50.396;8.546;2023-07-08T03:28:48;6.00;;;3.30;;
18188;SDS011;9219;50.396;8.546;2023-07-08T03:31:15;5.30;;;3.50;;
18188;SDS011;9219;50.396;8.546;2023-07-08T03:33:43;5.20;;;3.43;;
18188;SDS011;9219;50.396;8.546;2023-07-08T03:36:11;4.23;;;3.23;;
18188;SDS011;9219;50.396;8.546;2023-07-08T03:38:48;10.57;;;4.03;;
18188;SDS011;9219;50.396;8.546;2023-07-08T03:41:17;5.67;;;3.13;;
18188;SDS011;9219;50.396;8.546;2023-07-08T03:43:44;4.63;;;3.07;;
18188;SDS011;9219;50.396;8.546;2023-07-08T03:46:13;5.87;;;3.80;;
18188;SDS011;9219;50.396;8.546;2023-07-08T03:53:46;7.57;;;3.67;;
18188;SDS011;9219;50.396;8.546;2023-07-08T03:56:14;4.57;;;3.50;;
18188;SDS011;9219;50.396;8.546;2023-07-08T03:58:41;6.53;;;3.37;;
18188;SDS011;9219;50.396;8.546;2023-07-08T04:01:09;7.37;;;4.20;;
18188;SDS011;9219;50.396;8.546;2023-07-08T04:03:42;3.83;;;3.20;;
18188;SDS011;9219;50.396;8.546;2023-07-08T04:06:10;9.23;;;3.67;;
18188;SDS011;9219;50.396;8.546;2023-07-08T04:08:38;4.93;;;3.33;;
18188;SDS011;9219;50.396;8.546;2023-07-08T04:17:56;7.73;;;3.40;;
18188;SDS011;9219;50.396;8.546;2023-07-08T04:20:24;5.23;;;3.77;;
18188;SDS011;9219;50.396;8.546;2023-07-08T04:22:52;5.27;;;3.63;;
18188;SDS011;9219;50.396;8.546;2023-07-08T04:25:21;4.53;;;3.30;;
18188;SDS011;9219;50.396;8.546;2023-07-08T04:27:53;6.73;;;3.80;;
18188;SDS011;9219;50.396;8.546;2023-07-08T04:30:22;7.20;;;4.00;;
18188;SDS011;9219;50.396;8.546;2023-07-08T04:32:51;8.17;;;3.17;;
18188;SDS011;9219;50.396;8.546;2023-07-08T04:38:38;5.80;;;3.73;;
18188;SDS011;9219;50.396;8.546;2023-07-08T04:41:07;6.60;;;3.63;;
18188;SDS011;9219;50.396;8.546;2023-07-08T04:43:35;5.60;;;3.70;;
18188;SDS011;9219;50.396;8.546;2023-07-08T04:46:17;5.13;;;3.53;;
18188;SDS011;9219;50.396;8.546;2023-07-08T04:48:47;7.40;;;3.70;;
18188;SDS011;9219;50.396;8.546;2023-07-08T04:51:15;6.00;;;3.43;;
18188;SDS011;9219;50.396;8.546;2023-07-08T04:53:46;9.10;;;3.50;;
18188;SDS011;9219;50.396;8.546;2023-07-08T04:56:14;7.13;;;3.70;;
18188;SDS011;9219;50.396;8.546;2023-07-08T05:03:57;4.87;;;2.90;;
18188;SDS011;9219;50.396;8.546;2023-07-08T05:06:25;6.53;;;3.50;;
18188;SDS011;9219;50.396;8.546;2023-07-08T05:08:53;6.13;;;3.53;;
18188;SDS011;9219;50.396;8.546;2023-07-08T05:11:20;6.63;;;3.03;;
18188;SDS011;9219;50.396;8.546;2023-07-08T05:13:48;5.47;;;3.73;;
18188;SDS011;9219;50.396;8.546;2023-07-08T05:16:15;4.93;;;3.43;;
18188;SDS011;9219;50.396;8.546;2023-07-08T05:18:43;6.73;;;3.80;;
18188;SDS011;9219;50.396;8.546;2023-07-08T05:21:11;6.73;;;3.33;;
18188;SDS011;9219;50.396;8.546;2023-07-08T05:28:44;5.63;;;3.70;;
18188;SDS011;9219;50.396;8.546;2023-07-08T05:31:12;6.27;;;3.80;;
18188;SDS011;9219;50.396;8.546;2023-07-08T05:33:39;5.80;;;3.57;;
18188;SDS011;9219;50.396;8.546;2023-07-08T05:36:07;4.83;;;3.57;;
18188;SDS011;9219;50.396;8.546;2023-07-08T05:38:35;9.73;;;3.63;;
18188;SDS011;9219;50.396;8.546;2023-07-08T05:41:02;5.40;;;3.67;;
18188;SDS011;9219;50.396;8.546;2023-07-08T05:43:30;8.20;;;4.10;;
18188;SDS011;9219;50.396;8.546;2023-07-08T05:45:59;4.40;;;3.30;;
18188;SDS011;9219;50.396;8.546;2023-07-08T05:53:41;7.43;;;3.33;;
18188;SDS011;9219;50.396;8.546;2023-07-08T05:56:09;5.03;;;3.43;;
18188;SDS011;9219;50.396;8.546;2023-07-08T05:58:36;6.50;;;3.60;;
18188;SDS011;9219;50.396;8.546;2023-07-08T06:01:04;5.47;;;3.53;;
18188;SDS011;9219;50.396;8.546;2023-07-08T06:03:32;10.07;;;3.90;;
18188;SDS011;9219;50.396;8.546;2023-07-08T06:06:00;6.13;;;4.27;;
18188;SDS011;9219;50.396;8.546;2023-07-08T06:08:28;5.07;;;3.63;;
18188;SDS011;9219;50.396;8.546;2023-07-08T06:10:57;5.90;;;3.67;;
18188;SDS011;9219;50.396;8.546;2023-07-08T06:18:39;7.00;;;4.37;;
18188;SDS011;9219;50.396;8.546;2023-07-08T06:21:07;6.50;;;3.17;;
18188;SDS011;9219;50.396;8.546;2023-07-08T06:23:34;5.40;;;3.53;;
18188;SDS011;9219;50.396;8.546;2023-07-08T06:26:02;5.83;;;3.80;;
18188;SDS011;9219;50.396;8.546;2023-07-08T06:28:30;4.10;;;3.30;;
18188;SDS011;9219;50.396;8.546;2023-07-08T06:30:58;8.00;;;4.00;;
18188;SDS011;9219;50.396;8.546;2023-07-08T06:33:26;6.40;;;3.43;;
18188;SDS011;9219;50.396;8.546;2023-07-08T06:38:51;5.97;;;3.67;;
18188;SDS011;9219;50.396;8.546;2023-07-08T06:41:19;5.40;;;3.73;;
18188;SDS011;9219;50.396;8.546;2023-07-08T06:43:46;5.37;;;3.23;;
18188;SDS011;9219;50.396;8.546;2023-07-08T06:46:14;9.43;;;4.50;;
18188;SDS011;9219;50.396;8.546;2023-07-08T06:48:43;6.10;;;3.70;;
18188;SDS011;9219;50.396;8.546;2023-07-08T06:51:11;5.27;;;3.77;;
18188;SDS011;9219;50.396;8.546;2023-07-08T06:53:39;6.13;;;3.33;;
18188;SDS011;9219;50.396;8.546;2023-07-08T07:02:27;5.13;;;3.57;;
18188;SDS011;9219;50.396;8.546;2023-07-08T07:04:55;8.10;;;3.23;;
18188;SDS011;9219;50.396;8.546;2023-07-08T07:07:24;7.43;;;3.73;;
18188;SDS011;9219;50.396;8.546;2023-07-08T07:09:52;4.67;;;3.30;;
18188;SDS011;9219;50.396;8.546;2023-07-08T07:12:20;6.87;;;3.70;;
18188;SDS011;9219;50.396;8.546;2023-07-08T07:14:47;4.43;;;3.30;;
18188;SDS011;9219;50.396;8.546;2023-07-08T07:17:15;4.03;;;3.50;;
18188;SDS011;9219;50.396;8.546;2023-07-08T07:19:44;4.47;;;3.10;;
18188;SDS011;9219;50.396;8.546;2023-07-08T07:22:25;5.53;;;3.80;;
18188;SDS011;9219;50.396;8.546;2023-07-08T07:24:53;4.47;;;3.70;;
18188;SDS011;9219;50.396;8.546;2023-07-08T07:27:20;5.43;;;3.67;;
18188;SDS011;9219;50.396;8.546;2023-07-08T07:29:49;6.77;;;4.33;;
18188;SDS011;9219;50.396;8.546;2023-07-08T07:32:18;5.67;;;3.70;;
18188;SDS011;9219;50.396;8.546;2023-07-08T07:34:50;4.57;;;3.67;;
18188;SDS011;9219;50.396;8.546;2023-07-08T07:37:19;5.83;;;4.03;;
18188;SDS011;9219;50.396;8.546;2023-07-08T07:45:15;4.50;;;3.47;;
18188;SDS011;9219;50.396;8.546;2023-07-08T07:47:48;5.70;;;3.37;;
18188;SDS011;9219;50.396;8.546;2023-07-08T07:50:16;7.60;;;4.17;;
18188;SDS011;9219;50.396;8.546;2023-07-08T07:52:43;9.43;;;4.53;;
18188;SDS011;9219;50.396;8.546;2023-07-08T07:55:13;4.77;;;3.50;;
18188;SDS011;9219;50.396;8.546;2023-07-08T07:57:41;5.70;;;3.47;;
18188;SDS011;9219;50.396;8.546;2023-07-08T08:00:11;4.60;;;3.17;;
18188;SDS011;9219;50.396;8.546;2023-07-08T08:09:43;4.57;;;3.50;;
18188;SDS011;9219;50.396;8.546;2023-07-08T08:12:11;7.47;;;4.10;;
18188;SDS011;9219;50.396;8.546;2023-07-08T08:14:51;5.97;;;3.00;;
18188;SDS011;9219;50.396;8.546;2023-07-08T08:17:46;6.30;;;3.70;;
18188;SDS011;9219;50.396;8.546;2023-07-08T08:20:15;5.03;;;3.67;;
18188;SDS011;9219;50.396;8.546;2023-07-08T08:22:43;8.37;;;4.27;;
18188;SDS011;9219;50.396;8.546;2023-07-08T08:25:11;5.83;;;3.60;;
18188;SDS011;9219;50.396;8.546;2023-07-08T08:33:03;5.80;;;4.17;;
18188;SDS011;9219;50.396;8.546;2023-07-08T08:35:32;7.40;;;3.97;;
18188;SDS011;9219;50.396;8.546;2023-07-08T08:38:01;5.73;;;3.73;;
18188;SDS011;9219;50.396;8.546;2023-07-08T08:40:39;6.00;;;3.83;;
18188;SDS011;9219;50.396;8.546;2023-07-08T08:43:09;5.37;;;3.90;;
18188;SDS011;9219;50.396;8.546;2023-07-08T08:45:42;8.30;;;3.70;;
18188;SDS011;9219;50.396;8.546;2023-07-08T08:48:16;4.57;;;3.40;;
18188;SDS011;9219;50.396;8.546;2023-07-08T08:55:51;4.07;;;3.50;;
18188;SDS011;9219;50.396;8.546;2023-07-08T08:58:27;5.70;;;3.63;;
18188;SDS011;9219;50.396;8.546;2023-07-08T09:01:04;8.50;;;4.50;;
18188;SDS011;9219;50.396;8.546;2023-07-08T09:03:37;5.30;;;4.00;;
18188;SDS011;9219;50.396;8.546;2023-07-08T09:06:12;8.03;;;3.97;;
18188;SDS011;9219;50.396;8.546;2023-07-08T09:08:44;5.40;;;4.33;;
18188;SDS011;9219;50.396;8.546;2023-07-08T09:11:18;6.33;;;3.40;;
18188;SDS011;9219;50.396;8.546;2023-07-08T09:19:01;5.70;;;3.97;;
18188;SDS011;9219;50.396;8.546;2023-07-08T09:21:34;5.13;;;3.60;;
18188;SDS011;9219;50.396;8.546;2023-07-08T09:24:08;8.37;;;4.10;;
18188;SDS011;9219;50.396;8.546;2023-07-08T09:26:42;5.60;;;3.73;;
18188;SDS011;9219;50.396;8.546;2023-07-08T09:29:13;7.50;;;4.67;;
18188;SDS011;9219;50.396;8.546;2023-07-08T09:31:40;5.47;;;3.53;;
18188;SDS011;9219;50.396;8.546;2023-07-08T09:34:10;9.67;;;4.90;;
18188;SDS011;9219;50.396;8.546;2023-07-08T09:41:40;7.73;;;4.73;;
18188;SDS011;9219;50.396;8.546;2023-07-08T09:44:17;7.53;;;4.77;;
18188;SDS011;9219;50.396;8.546;2023-07-08T09:46:49;6.87;;;4.33;;
18188;SDS011;9219;50.396;8.546;2023-07-08T09:49:18;6.23;;;4.63;;
18188;SDS011;9219;50.396;8.546;2023-07-08T09:51:48;7.87;;;4.57;;
18188;SDS011;9219;50.396;8.546;2023-07-08T09:54:18;6.10;;;4.00;;
18188;SDS011;9219;50.396;8.546;2023-07-08T09:56:50;5.70;;;4.17;;
18188;SDS011;9219;50.396;8.546;2023-07-08T10:05:48;7.80;;;4.27;;
18188;SDS011;9219;50.396;8.546;2023-07-08T10:08:19;5.13;;;3.73;;
18188;SDS011;9219;50.396;8.546;2023-07-08T10:10:51;10.60;;;4.80;;
18188;SDS011;9219;50.396;8.546;2023-07-08T10:13:26;6.80;;;4.70;;
18188;SDS011;9219;50.396;8.546;2023-07-08T10:16:06;7.77;;;4.53;;
18188;SDS011;9219;50.396;8.546;2023-07-08T10:18:41;6.03;;;4.47;;
18188;SDS011;9219;50.396;8.546;2023-07-08T10:21:11;11.20;;;5.73;;
18188;SDS011;9219;50.396;8.546;2023-07-08T10:28:58;8.23;;;4.80;;
18188;SDS011;9219;50.396;8.546;2023-07-08T10:31:41;8.67;;;5.47;;
18188;SDS011;9219;50.396;8.546;2023-07-08T10:34:20;6.90;;;4.53;;
18188;SDS011;9219;50.396;8.546;2023-07-08T10:37:00;6.90;;;4.40;;
18188;SDS011;9219;50.396;8.546;2023-07-08T10:39:46;6.17;;;4.50;;
18188;SDS011;9219;50.396;8.546;2023-07-08T10:42:34;8.40;;;4.40;;
18188;SDS011;9219;50.396;8.546;2023-07-08T10:45:13;8.40;;;4.17;;
18188;SDS011;9219;50.396;8.546;2023-07-08T10:48:28;7.23;;;3.97;;
18188;SDS011;9219;50.396;8.546;2023-07-08T10:51:12;8.10;;;4.57;;
18188;SDS011;9219;50.396;8.546;2023-07-08T10:53:56;4.93;;;3.83;;
18188;SDS011;9219;50.396;8.546;2023-07-08T10:56:43;6.30;;;4.57;;
18188;SDS011;9219;50.396;8.546;2023-07-08T10:59:36;6.60;;;4.97;;
18188;SDS011;9219;50.396;8.546;2023-07-08T11:05:25;10.18;;;8.20;;
18188;SDS011;9219;50.396;8.546;2023-07-08T11:13:35;8.02;;;6.55;;
18188;SDS011;9219;50.396;8.546;2023-07-08T11:16:12;8.90;;;5.35;;
18188;SDS011;9219;50.396;8.546;2023-07-08T11:18:47;8.32;;;5.22;;
18188;SDS011;9219;50.396;8.546;2023-07-08T11:21:22;6.47;;;4.47;;
18188;SDS011;9219;50.396;8.546;2023-07-08T11:23:55;6.90;;;4.18;;
18188;SDS011;9219;50.396;8.546;2023-07-08T11:26:30;7.20;;;4.50;;
18188;SDS011;9219;50.396;8.546;2023-07-08T11:29:05;6.53;;;4.25;;
18188;SDS011;9219;50.396;8.546;2023-07-08T11:36:47;5.75;;;3.95;;
18188;SDS011;9219;50.396;8.546;2023-07-08T11:42:15;7.63;;;4.78;;
18188;SDS011;9219;50.396;8.546;2023-07-08T11:44:50;7.07;;;4.55;;
18188;SDS011;9219;50.396;8.546;2023-07-08T11:47:20;6.75;;;4.32;;
18188;SDS011;9219;50.396;8.546;2023-07-08T11:50:15;6.38;;;4.97;;
18188;SDS011;9219;50.396;8.546;2023-07-08T11:56:57;10.05;;;4.97;;
18188;SDS011;9219;50.396;8.546;2023-07-08T11:59:29;6.32;;;4.63;;
18188;SDS011;9219;50.396;8.546;2023-07-08T12:02:01;6.95;;;4.55;;
18188;SDS011;9219;50.396;8.546;2023-07-08T12:04:33;6.97;;;4.95;;
18188;SDS011;9219;50.396;8.546;2023-07-08T12:07:06;6.88;;;4.82;;
18188;SDS011;9219;50.396;8.546;2023-07-08T12:09:38;8.98;;;5.30;;
18188;SDS011;9219;50.396;8.546;2023-07-08T12:12:16;6.68;;;4.70;;
18188;SDS011;9219;50.396;8.546;2023-07-08T12:19:53;7.40;;;5.15;;
18188;SDS011;9219;50.396;8.546;2023-07-08T12:22:31;8.18;;;4.72;;
18188;SDS011;9219;50.396;8.546;2023-07-08T12:25:00;9.27;;;4.95;;
18188;SDS011;9219;50.396;8.546;2023-07-08T12:27:31;8.18;;;5.20;;
18188;SDS011;9219;50.396;8.546;2023-07-08T12:29:59;7.35;;;4.78;;
18188;SDS011;9219;50.396;8.546;2023-07-08T12:32:28;9.90;;;5.15;;
18188;SDS011;9219;50.396;8.546;2023-07-08T12:34:58;6.82;;;5.25;;
18188;SDS011;9219;50.396;8.546;2023-07-08T12:42:33;9.77;;;5.82;;
18188;SDS011;9219;50.396;8.546;2023-07-08T12:45:07;7.95;;;5.10;;
18188;SDS011;9219;50.396;8.546;2023-07-08T12:47:43;9.55;;;4.70;;
18188;SDS011;9219;50.396;8.546;2023-07-08T12:50:12;6.47;;;4.80;;
18188;SDS011;9219;50.396;8.546;2023-07-08T12:52:42;10.50;;;5.50;;
18188;SDS011;9219;50.396;8.546;2023-07-08T12:55:11;7.82;;;4.70;;
18188;SDS011;9219;50.396;8.546;2023-07-08T12:57:42;5.72;;;4.53;;
18188;SDS011;9219;50.396;8.546;2023-07-08T13:05:18;6.25;;;4.40;;
18188;SDS011;9219;50.396;8.546;2023-07-08T13:07:46;7.10;;;5.07;;
18188;SDS011;9219;50.396;8.546;2023-07-08T13:10:16;6.80;;;5.05;;
18188;SDS011;9219;50.396;8.546;2023-07-08T13:12:50;5.63;;;4.47;;
18188;SDS011;9219;50.396;8.546;2023-07-08T13:15:25;5.88;;;4.70;;
18188;SDS011;9219;50.396;8.546;2023-07-08T13:18:01;6.72;;;4.68;;
18188;SDS011;9219;50.396;8.546;2023-07-08T13:20:31;7.68;;;5.22;;
18188;SDS011;9219;50.396;8.546;2023-07-08T13:26:45;6.45;;;4.45;;
18188;SDS011;9219;50.396;8.546;2023-07-08T13:29:16;10.15;;;4.85;;
18188;SDS011;9219;50.396;8.546;2023-07-08T13:31:48;11.68;;;5.10;;
18188;SDS011;9219;50.396;8.546;2023-07-08T13:34:23;7.00;;;4.80;;
18188;SDS011;9219;50.396;8.546;2023-07-08T13:36:52;6.70;;;4.75;;
18188;SDS011;9219;50.396;8.546;2023-07-08T13:39:22;8.43;;;4.95;;
18188;SDS011;9219;50.396;8.546;2023-07-08T13:41:57;6.72;;;5.13;;
18188;SDS011;9219;50.396;8.546;2023-07-08T13:49:38;6.43;;;4.38;;
18188;SDS011;9219;50.396;8.546;2023-07-08T13:52:15;7.68;;;5.00;;
18188;SDS011;9219;50.396;8.546;2023-07-08T13:54:46;8.93;;;5.43;;
18188;SDS011;9219;50.396;8.546;2023-07-08T13:57:17;7.15;;;4.75;;
18188;SDS011;9219;50.396;8.546;2023-07-08T13:59:46;6.18;;;4.45;;
18188;SDS011;9219;50.396;8.546;2023-07-08T14:02:15;9.60;;;5.07;;
18188;SDS011;9219;50.396;8.546;2023-07-08T14:04:49;7.40;;;5.10;;
18188;SDS011;9219;50.396;8.546;2023-07-08T14:07:19;7.57;;;4.90;;
18188;SDS011;9219;50.396;8.546;2023-07-08T14:16:02;8.13;;;5.03;;
18188;SDS011;9219;50.396;8.546;2023-07-08T14:18:36;8.07;;;5.18;;
18188;SDS011;9219;50.396;8.546;2023-07-08T14:21:04;9.23;;;5.35;;
18188;SDS011;9219;50.396;8.546;2023-07-08T14:23:32;9.43;;;5.20;;
18188;SDS011;9219;50.396;8.546;2023-07-08T14:26:04;8.18;;;5.22;;
18188;SDS011;9219;50.396;8.546;2023-07-08T14:28:34;8.80;;;5.47;;
18188;SDS011;9219;50.396;8.546;2023-07-08T14:31:08;7.28;;;5.35;;
18188;SDS011;9219;50.396;8.546;2023-07-08T14:36:20;6.28;;;4.82;;
18188;SDS011;9219;50.396;8.546;2023-07-08T14:38:49;9.50;;;5.38;;
18188;SDS011;9219;50.396;8.546;2023-07-08T14:41:18;11.50;;;4.53;;
18188;SDS011;9219;50.396;8.546;2023-07-08T14:43:46;10.68;;;5.50;;
18188;SDS011;9219;50.396;8.546;2023-07-08T14:46:14;10.00;;;4.80;;
18188;SDS011;9219;50.396;8.546;2023-07-08T14:48:42;6.30;;;4.78;;
18188;SDS011;9219;50.396;8.546;2023-07-08T14:51:11;8.17;;;5.40;;
18188;SDS011;9219;50.396;8.546;2023-07-08T14:53:40;6.03;;;4.50;;
18188;SDS011;9219;50.396;8.546;2023-07-08T15:01:16;7.68;;;4.57;;
18188;SDS011;9219;50.396;8.546;2023-07-08T15:03:54;7.23;;;4.57;;
18188;SDS011;9219;50.396;8.546;2023-07-08T15:06:26;10.00;;;5.00;;
18188;SDS011;9219;50.396;8.546;2023-07-08T15:08:56;5.78;;;4.32;;
18188;SDS011;9219;50.396;8.546;2023-07-08T15:11:26;11.05;;;4.38;;
18188;SDS011;9219;50.396;8.546;2023-07-08T15:13:56;7.30;;;4.57;;
18188;SDS011;9219;50.396;8.546;2023-07-08T15:16:25;6.77;;;4.40;;
18188;SDS011;9219;50.396;8.546;2023-07-08T15:21:32;5.43;;;4.20;;
18188;SDS011;9219;50.396;8.546;2023-07-08T15:23:59;8.07;;;3.73;;
18188;SDS011;9219;50.396;8.546;2023-07-08T15:26:27;10.23;;;4.37;;
18188;SDS011;9219;50.396;8.546;2023-07-08T15:28:55;6.57;;;4.10;;
18188;SDS011;9219;50.396;8.546;2023-07-08T15:31:26;7.73;;;5.10;;
18188;SDS011;9219;50.396;8.546;2023-07-08T15:33:57;6.37;;;3.87;;
18188;SDS011;9219;50.396;8.546;2023-07-08T15:36:28;6.20;;;4.20;;
18188;SDS011;9219;50.396;8.546;2023-07-08T15:44:01;6.37;;;4.17;;
18188;SDS011;9219;50.396;8.546;2023-07-08T15:46:30;10.20;;;5.57;;
18188;SDS011;9219;50.396;8.546;2023-07-08T15:49:07;7.43;;;4.67;;
18188;SDS011;9219;50.396;8.546;2023-07-08T15:51:39;5.53;;;4.47;;
18188;SDS011;9219;50.396;8.546;2023-07-08T15:54:07;9.97;;;4.13;;
18188;SDS011;9219;50.396;8.546;2023-07-08T15:56:36;6.77;;;4.43;;
18188;SDS011;9219;50.396;8.546;2023-07-08T15:59:10;11.97;;;4.93;;
18188;SDS011;9219;50.396;8.546;2023-07-08T16:05:29;7.77;;;4.40;;
18188;SDS011;9219;50.396;8.546;2023-07-08T16:08:04;8.70;;;4.27;;
18188;SDS011;9219;50.396;8.546;2023-07-08T16:10:32;10.27;;;3.90;;
18188;SDS011;9219;50.396;8.546;2023-07-08T16:13:04;11.77;;;5.40;;
18188;SDS011;9219;50.396;8.546;2023-07-08T16:15:33;8.00;;;4.37;;
18188;SDS011;9219;50.396;8.546;2023-07-08T16:18:07;7.13;;;3.80;;
18188;SDS011;9219;50.396;8.546;2023-07-08T16:20:42;8.87;;;4.20;;
18188;SDS011;9219;50.396;8.546;2023-07-08T16:28:19;6.77;;;3.70;;
18188;SDS011;9219;50.396;8.546;2023-07-08T16:30:56;9.97;;;5.03;;
18188;SDS011;9219;50.396;8.546;2023-07-08T16:33:24;6.97;;;3.87;;
18188;SDS011;9219;50.396;8.546;2023-07-08T16:35:56;8.27;;;4.10;;
18188;SDS011;9219;50.396;8.546;2023-07-08T16:38:27;7.10;;;4.37;;
18188;SDS011;9219;50.396;8.546;2023-07-08T16:40:56;9.83;;;4.70;;
18188;SDS011;9219;50.396;8.546;2023-07-08T16:43:27;5.17;;;3.73;;
18188;SDS011;9219;50.396;8.546;2023-07-08T16:48:45;10.67;;;4.80;;
18188;SDS011;9219;50.396;8.546;2023-07-08T16:51:13;7.10;;;3.80;;
18188;SDS011;9219;50.396;8.546;2023-07-08T16:53:43;7.10;;;4.63;;
18188;SDS011;9219;50.396;8.546;2023-07-08T16:56:12;6.63;;;3.87;;
18188;SDS011;9219;50.396;8.546;2023-07-08T16:58:43;6.90;;;3.43;;
18188;SDS011;9219;50.396;8.546;2023-07-08T17:01:13;6.70;;;3.57;;
18188;SDS011;9219;50.396;8.546;2023-07-08T17:04:08;8.67;;;5.40;;
18188;SDS011;9219;50.396;8.546;2023-07-08T17:11:43;10.57;;;4.50;;
18188;SDS011;9219;50.396;8.546;2023-07-08T17:14:11;9.13;;;4.90;;
18188;SDS011;9219;50.396;8.546;2023-07-08T17:16:39;10.43;;;4.00;;
18188;SDS011;9219;50.396;8.546;2023-07-08T17:19:09;5.47;;;3.77;;
18188;SDS011;9219;50.396;8.546;2023-07-08T17:21:39;7.70;;;3.93;;
18188;SDS011;9219;50.396;8.546;2023-07-08T17:24:08;7.93;;;4.30;;
18188;SDS011;9219;50.396;8.546;2023-07-08T17:26:38;10.83;;;4.37;;
18188;SDS011;9219;50.396;8.546;2023-07-08T17:34:15;6.27;;;4.00;;
18188;SDS011;9219;50.396;8.546;2023-07-08T17:36:51;8.67;;;4.07;;
18188;SDS011;9219;50.396;8.546;2023-07-08T17:39:23;9.63;;;4.47;;
18188;SDS011;9219;50.396;8.546;2023-07-08T17:41:51;13.20;;;3.87;;
18188;SDS011;9219;50.396;8.546;2023-07-08T17:44:22;4.97;;;3.33;;
18188;SDS011;9219;50.396;8.546;2023-07-08T17:46:51;8.57;;;4.57;;
18188;SDS011;9219;50.396;8.546;2023-07-08T17:49:20;8.17;;;3.83;;
18188;SDS011;9219;50.396;8.546;2023-07-08T17:57:40;9.87;;;4.20;;
18188;SDS011;9219;50.396;8.546;2023-07-08T18:00:15;4.93;;;3.20;;
18188;SDS011;9219;50.396;8.546;2023-07-08T18:02:46;5.20;;;3.80;;
18188;SDS011;9219;50.396;8.546;2023-07-08T18:05:18;6.40;;;3.90;;
18188;SDS011;9219;50.396;8.546;2023-07-08T18:07:50;7.97;;;3.43;;
18188;SDS011;9219;50.396;8.546;2023-07-08T18:10:26;5.33;;;3.93;;
18188;SDS011;9219;50.396;8.546;2023-07-08T18:13:03;8.33;;;4.33;;
18188;SDS011;9219;50.396;8.546;2023-07-08T18:15:50;6.57;;;4.17;;
18188;SDS011;9219;50.396;8.546;2023-07-08T18:23:49;8.47;;;3.70;;
18188;SDS011;9219;50.396;8.546;2023-07-08T18:26:22;10.80;;;4.67;;
18188;SDS011;9219;50.396;8.546;2023-07-08T18:28:53;8.17;;;4.47;;
18188;SDS011;9219;50.396;8.546;2023-07-08T18:31:24;7.27;;;4.57;;
18188;SDS011;9219;50.396;8.546;2023-07-08T18:34:00;7.23;;;4.20;;
18188;SDS011;9219;50.396;8.546;2023-07-08T18:36:37;6.77;;;4.20;;
18188;SDS011;9219;50.396;8.546;2023-07-08T18:39:11;6.67;;;3.60;;
18188;SDS011;9219;50.396;8.546;2023-07-08T18:46:51;8.80;;;5.10;;
18188;SDS011;9219;50.396;8.546;2023-07-08T18:49:23;6.70;;;4.70;;
18188;SDS011;9219;50.396;8.546;2023-07-08T18:51:57;9.87;;;4.37;;
18188;SDS011;9219;50.396;8.546;2023-07-08T18:54:31;9.67;;;6.07;;
18188;SDS011;9219;50.396;8.546;2023-07-08T18:57:04;7.03;;;4.37;;
18188;SDS011;9219;50.396;8.546;2023-07-08T18:59:36;9.20;;;4.53;;
18188;SDS011;9219;50.396;8.546;2023-07-08T19:02:10;8.90;;;4.67;;
18188;SDS011;9219;50.396;8.546;2023-07-08T19:10:04;6.73;;;4.23;;
18188;SDS011;9219;50.396;8.546;2023-07-08T19:12:33;9.37;;;4.63;;
18188;SDS011;9219;50.396;8.546;2023-07-08T19:15:05;12.67;;;4.30;;
18188;SDS011;9219;50.396;8.546;2023-07-08T19:17:36;8.47;;;4.70;;
18188;SDS011;9219;50.396;8.546;2023-07-08T19:20:09;5.20;;;3.60;;
18188;SDS011;9219;50.396;8.546;2023-07-08T19:22:41;12.93;;;4.90;;
18188;SDS011;9219;50.396;8.546;2023-07-08T19:25:16;11.67;;;3.87;;
18188;SDS011;9219;50.396;8.546;2023-07-08T19:32:54;8.27;;;3.93;;
18188;SDS011;9219;50.396;8.546;2023-07-08T19:35:26;5.70;;;3.70;;